Aviation Digital Data Service (ADDS)

Output produced by METARs form (0105 UTC 29 March 2015)
found at http://aviationweather.gov/adds/metars/
 
KDET 282320Z 2900/2924 19005KT P6SM SKC 
     FM291400 20014G22KT P6SM BKN200 
     FM291800 21018G27KT P6SM OVC150 
     FM292100 22019G29KT 5SM -SHRA BKN028 OVC035